Terminal Aerodrome Forecast
Issued by NWS

Home | Current Version | Previous Version | Text Only | Print | Product List | Glossary On
Versions: 1 2 3 4 5 6 7 8 9 10 11 12 13 14
000
FTUS44 KLZK 131100
TAFBPK
TAF
KBPK 131128Z 1312/1412 23003KT P6SM SCT120
     FM131800 23010KT P6SM SCT050
     FM140000 20004KT P6SM SCT050 SCT250
     FM140400 20003KT P6SM VCTS SCT050CB BKN100
     FM140700 21005KT P6SM VCTS SCT050CB OVC100 PROB30 1407/1412 5SM
      TSRA OVC030CB=

USA.gov is the U.S. government's official web portal to all federal, state and local government web resources and services.